createdAt,value
2023-03-17T00:01:10.749Z,4.04
2023-03-17T00:03:40.563Z,3.98
2023-03-17T00:06:16.031Z,4.11
2023-03-17T00:08:43.467Z,4.02
2023-03-17T00:11:13.725Z,4.05
2023-03-17T00:13:41.751Z,4.06
2023-03-17T00:16:16.585Z,4.14
2023-03-17T00:18:44.657Z,4.23
2023-03-17T00:21:16.906Z,4.31
2023-03-17T00:23:51.574Z,4.23
2023-03-17T00:26:18.666Z,4.30
2023-03-17T00:28:45.444Z,4.25
2023-03-17T00:31:14.158Z,4.20
2023-03-17T00:33:41.626Z,4.14
2023-03-17T00:36:13.607Z,4.19
2023-03-17T00:38:40.111Z,4.22
2023-03-17T00:41:09.832Z,4.18
2023-03-17T00:43:36.752Z,4.14
2023-03-17T00:46:11.591Z,4.15
2023-03-17T00:48:39.131Z,4.11
2023-03-17T00:51:05.976Z,4.00
2023-03-17T00:53:32.662Z,3.94
2023-03-17T00:55:59.131Z,3.99
2023-03-17T00:58:31.578Z,4.13
2023-03-17T01:00:59.684Z,4.22
2023-03-17T01:03:27.537Z,4.04
2023-03-17T01:05:57.715Z,4.11
2023-03-17T01:08:25.733Z,4.11
2023-03-17T01:10:52.615Z,4.05
2023-03-17T01:13:19.225Z,3.93
2023-03-17T01:15:47.666Z,3.97
2023-03-17T01:18:16.856Z,4.13
2023-03-17T01:20:43.536Z,4.15
2023-03-17T01:23:12.165Z,4.18
2023-03-17T01:25:42.834Z,4.24
2023-03-17T01:28:18.545Z,4.22
2023-03-17T01:30:46.935Z,4.19
2023-03-17T01:33:14.491Z,4.04
2023-03-17T01:35:43.618Z,3.94
2023-03-17T01:38:10.270Z,3.82
2023-03-17T01:40:42.540Z,3.96
2023-03-17T01:43:08.964Z,4.02
2023-03-17T01:46:13.390Z,3.94
2023-03-17T01:49:03.638Z,4.06
2023-03-17T01:51:32.439Z,4.18
2023-03-17T01:54:06.685Z,4.17
2023-03-17T01:56:35.126Z,4.08
2023-03-17T01:59:05.503Z,3.80
2023-03-17T02:01:39.938Z,4.04
2023-03-17T02:04:08.554Z,4.06
2023-03-17T02:06:37.010Z,4.03
2023-03-17T02:09:07.865Z,4.13
2023-03-17T02:11:35.826Z,4.16
2023-03-17T02:14:02.667Z,4.13
2023-03-17T02:16:30.118Z,3.95
2023-03-17T02:18:56.608Z,3.87
2023-03-17T02:21:40.955Z,3.80
2023-03-17T02:24:48.785Z,3.69
2023-03-17T02:27:41.802Z,3.68
2023-03-17T02:30:11.816Z,3.66
2023-03-17T02:32:38.735Z,3.68
2023-03-17T02:35:08.285Z,3.53
2023-03-17T02:37:37.448Z,3.55
2023-03-17T02:40:05.676Z,3.69
2023-03-17T02:42:35.636Z,3.67
2023-03-17T02:45:02.254Z,3.55
2023-03-17T02:47:28.770Z,3.47
2023-03-17T02:49:55.362Z,3.47
2023-03-17T02:52:21.811Z,3.29
2023-03-17T02:54:48.447Z,3.33
2023-03-17T02:57:14.913Z,3.42
2023-03-17T02:59:41.624Z,3.43
2023-03-17T03:02:08.385Z,3.35
2023-03-17T03:04:35.885Z,3.31
2023-03-17T03:07:02.776Z,3.16
2023-03-17T03:09:29.795Z,3.14
2023-03-17T03:11:56.734Z,2.98
2023-03-17T03:14:23.489Z,2.81
2023-03-17T03:16:50.284Z,2.88
2023-03-17T03:19:16.731Z,2.94
2023-03-17T03:21:43.199Z,2.91
2023-03-17T03:24:10.898Z,2.92
2023-03-17T03:26:37.327Z,2.94
2023-03-17T03:29:04.750Z,2.91
2023-03-17T03:31:31.618Z,2.83
2023-03-17T03:33:58.061Z,2.85
2023-03-17T03:36:25.399Z,2.68
2023-03-17T03:38:51.899Z,2.49
2023-03-17T03:41:18.322Z,2.49
2023-03-17T03:43:44.858Z,2.42
2023-03-17T03:46:11.366Z,2.51
2023-03-17T03:48:37.802Z,2.41
2023-03-17T03:51:04.317Z,2.53
2023-03-17T03:53:31.032Z,2.49
2023-03-17T03:55:57.477Z,2.45
2023-03-17T03:58:24.057Z,2.41
2023-03-17T04:00:50.606Z,2.27
2023-03-17T04:03:17.221Z,2.26
2023-03-17T04:05:43.677Z,2.26
2023-03-17T04:08:11.332Z,2.28
2023-03-17T04:10:38.076Z,2.28
2023-03-17T04:13:04.500Z,2.19
2023-03-17T04:15:31.145Z,2.26
2023-03-17T04:17:57.615Z,2.13
2023-03-17T04:20:24.046Z,2.14
2023-03-17T04:22:50.474Z,1.94
2023-03-17T04:25:16.986Z,1.83
2023-03-17T04:27:43.440Z,1.93
2023-03-17T04:30:13.683Z,1.98
2023-03-17T04:32:40.962Z,1.92
2023-03-17T04:35:10.935Z,1.85
2023-03-17T04:37:38.699Z,1.79
2023-03-17T04:40:09.852Z,1.76
2023-03-17T04:42:37.567Z,1.87
2023-03-17T04:45:06.330Z,1.81
2023-03-17T04:47:33.339Z,1.61
2023-03-17T04:49:59.854Z,1.47
2023-03-17T04:52:26.282Z,1.60
2023-03-17T04:54:53.192Z,1.59
2023-03-17T04:57:19.682Z,1.64
2023-03-17T04:59:46.206Z,1.64
2023-03-17T05:02:12.821Z,1.56
2023-03-17T05:04:39.804Z,1.42
2023-03-17T05:07:06.460Z,1.44
2023-03-17T05:09:32.952Z,1.41
2023-03-17T05:11:59.521Z,1.41
2023-03-17T05:14:26.000Z,1.46
2023-03-17T05:16:52.465Z,1.41
2023-03-17T05:19:19.063Z,1.28
2023-03-17T05:21:46.645Z,1.18
2023-03-17T05:24:13.095Z,1.24
2023-03-17T05:26:39.946Z,1.22
2023-03-17T05:29:07.102Z,1.18
2023-03-17T05:31:33.840Z,1.24
2023-03-17T05:34:00.567Z,1.13
2023-03-17T05:36:27.012Z,1.10
2023-03-17T05:38:54.457Z,0.98
2023-03-17T05:41:21.626Z,1.02
2023-03-17T05:43:48.112Z,1.02
2023-03-17T05:46:15.084Z,1.00
2023-03-17T05:48:41.848Z,0.96
2023-03-17T05:51:08.310Z,0.94
2023-03-17T05:53:36.184Z,0.97
2023-03-17T05:56:03.141Z,0.72
2023-03-17T05:58:29.761Z,1.50
2023-03-17T06:00:56.947Z,2.64
2023-03-17T06:03:23.786Z,3.28
2023-03-17T06:05:50.350Z,3.82
2023-03-17T06:08:17.093Z,4.26
2023-03-17T06:10:43.603Z,4.47
2023-03-17T06:13:11.010Z,4.70
2023-03-17T06:15:37.818Z,4.60
2023-03-17T06:18:05.126Z,4.91
2023-03-17T06:20:33.049Z,5.12
2023-03-17T06:23:05.067Z,5.12
2023-03-17T06:25:34.110Z,5.54
2023-03-17T06:28:03.540Z,5.93
2023-03-17T06:30:31.306Z,5.91
2023-03-17T06:32:58.032Z,5.88
2023-03-17T06:35:25.186Z,5.96
2023-03-17T06:37:51.753Z,6.25
2023-03-17T06:40:18.366Z,6.44
2023-03-17T06:42:44.813Z,6.74
2023-03-17T06:45:12.344Z,6.90
2023-03-17T06:47:39.757Z,7.04
2023-03-17T06:50:09.701Z,7.07
2023-03-17T06:52:37.148Z,7.10
2023-03-17T06:55:05.094Z,7.06
2023-03-17T06:57:31.916Z,7.09
2023-03-17T06:59:58.754Z,7.11
2023-03-17T07:02:25.426Z,7.05
2023-03-17T07:04:52.136Z,6.90
2023-03-17T07:07:20.731Z,6.72
2023-03-17T07:09:47.810Z,6.55
2023-03-17T07:12:14.416Z,6.11
2023-03-17T07:14:41.541Z,6.10
2023-03-17T07:17:11.988Z,5.86
2023-03-17T07:19:38.916Z,5.81
2023-03-17T07:22:05.441Z,5.63
2023-03-17T07:24:32.157Z,5.45
2023-03-17T07:26:59.754Z,5.26
2023-03-17T07:29:27.058Z,5.10
2023-03-17T07:31:53.918Z,5.20
2023-03-17T07:34:20.525Z,5.27
2023-03-17T07:36:46.941Z,5.37
2023-03-17T07:39:13.374Z,5.55
2023-03-17T07:41:40.240Z,5.57
2023-03-17T07:44:11.262Z,5.91
2023-03-17T07:46:38.858Z,6.27
2023-03-17T07:49:06.030Z,6.81
2023-03-17T07:51:32.534Z,7.27
2023-03-17T07:54:03.771Z,7.86
2023-03-17T07:56:31.747Z,8.53
2023-03-17T07:58:59.065Z,9.13
2023-03-17T08:01:26.782Z,9.77
2023-03-17T08:03:53.916Z,10.35
2023-03-17T08:06:21.561Z,10.65
2023-03-17T08:08:48.458Z,10.79
2023-03-17T08:11:15.591Z,10.90
2023-03-17T08:13:42.263Z,11.10
2023-03-17T08:16:09.214Z,11.55
2023-03-17T08:18:36.512Z,11.67
2023-03-17T08:21:03.480Z,11.90
2023-03-17T08:23:30.973Z,12.16
2023-03-17T08:25:59.243Z,12.19
2023-03-17T08:28:25.835Z,12.37
2023-03-17T08:30:52.656Z,12.39
2023-03-17T08:33:19.166Z,12.50
2023-03-17T08:35:45.995Z,12.77
2023-03-17T08:38:12.701Z,13.09
2023-03-17T08:40:40.125Z,13.39
2023-03-17T08:43:07.665Z,13.66
2023-03-17T08:45:34.447Z,14.20
2023-03-17T08:48:01.222Z,14.63
2023-03-17T08:50:27.817Z,14.66
2023-03-17T08:52:55.074Z,14.87
2023-03-17T08:55:21.549Z,14.95
2023-03-17T08:57:48.635Z,14.48
2023-03-17T09:00:20.270Z,14.06
2023-03-17T09:02:48.644Z,13.97
2023-03-17T09:05:16.711Z,14.26
2023-03-17T09:07:43.813Z,14.43
2023-03-17T09:10:11.123Z,14.69
2023-03-17T09:12:38.167Z,14.92
2023-03-17T09:15:06.171Z,14.64
2023-03-17T09:17:33.113Z,14.68
2023-03-17T09:19:59.648Z,14.45
2023-03-17T09:22:26.285Z,14.62
2023-03-17T09:24:53.153Z,14.71
2023-03-17T09:27:19.563Z,14.86
2023-03-17T09:29:46.549Z,14.84
2023-03-17T09:32:13.018Z,14.89
2023-03-17T09:34:39.552Z,14.89
2023-03-17T09:37:06.818Z,14.62
2023-03-17T09:39:33.449Z,14.72
2023-03-17T09:42:09.262Z,14.54
2023-03-17T09:44:54.405Z,14.45
2023-03-17T09:47:47.004Z,14.48
2023-03-17T09:50:22.079Z,14.59
2023-03-17T09:52:51.506Z,14.67
2023-03-17T09:55:31.201Z,14.55
2023-03-17T09:57:58.880Z,14.18
2023-03-17T10:00:29.221Z,14.41
2023-03-17T10:02:57.967Z,14.61
2023-03-17T10:05:27.361Z,14.56
2023-03-17T10:08:29.499Z,14.53
2023-03-17T10:11:24.343Z,14.60
2023-03-17T10:14:11.138Z,14.67
2023-03-17T10:16:51.386Z,14.76
2023-03-17T10:19:32.453Z,14.82
2023-03-17T10:22:29.303Z,14.83
2023-03-17T10:25:03.688Z,14.81
2023-03-17T10:27:34.196Z,14.83
2023-03-17T10:30:00.887Z,14.56
2023-03-17T10:32:29.750Z,14.50
2023-03-17T10:34:57.205Z,14.29
2023-03-17T10:37:24.318Z,14.24
2023-03-17T10:39:53.100Z,14.30
2023-03-17T10:42:29.100Z,14.31
2023-03-17T10:44:58.560Z,14.42
2023-03-17T10:47:34.661Z,14.33
2023-03-17T10:50:32.549Z,14.44
2023-03-17T10:53:23.489Z,14.46
2023-03-17T10:55:52.559Z,14.43
2023-03-17T10:58:21.784Z,14.43
2023-03-17T11:01:02.504Z,14.47
2023-03-17T11:03:34.123Z,14.52
2023-03-17T11:06:08.795Z,14.48
2023-03-17T11:08:49.500Z,14.55
2023-03-17T11:11:49.219Z,14.54
2023-03-17T11:14:18.900Z,14.46
2023-03-17T11:16:56.810Z,14.51
2023-03-17T11:19:58.427Z,14.56
2023-03-17T11:22:35.021Z,14.53
2023-03-17T11:25:11.529Z,14.54
2023-03-17T11:27:47.246Z,14.61
2023-03-17T11:30:47.608Z,14.57
2023-03-17T11:33:36.186Z,14.62
2023-03-17T11:37:00.109Z,14.50
2023-03-17T11:39:36.343Z,14.59
2023-03-17T11:42:23.614Z,14.44
2023-03-17T11:44:59.134Z,14.44
2023-03-17T11:47:52.733Z,14.37
2023-03-17T11:50:49.876Z,14.46
2023-03-17T11:53:36.501Z,14.32
2023-03-17T11:56:11.644Z,14.29
2023-03-17T11:58:46.574Z,14.21
2023-03-17T12:01:17.994Z,14.22
2023-03-17T12:04:03.431Z,14.17
2023-03-17T12:06:34.144Z,14.02
2023-03-17T12:09:24.697Z,14.13
2023-03-17T12:11:51.853Z,14.14
2023-03-17T12:14:28.618Z,14.11
2023-03-17T12:17:21.681Z,14.14
2023-03-17T12:20:09.555Z,14.14
2023-03-17T12:22:53.994Z,14.18
2023-03-17T12:25:40.654Z,14.14
2023-03-17T12:28:23.037Z,14.19
2023-03-17T12:30:54.216Z,14.20
2023-03-17T12:33:53.710Z,14.17
2023-03-17T12:36:21.777Z,14.20
2023-03-17T12:38:54.012Z,14.26
2023-03-17T12:41:32.697Z,14.37
2023-03-17T12:44:12.686Z,14.40
2023-03-17T12:46:53.846Z,14.47
2023-03-17T12:49:33.567Z,14.48
2023-03-17T12:52:06.899Z,14.50
2023-03-17T12:54:36.599Z,14.48
2023-03-17T12:57:14.780Z,14.59
2023-03-17T12:59:47.797Z,14.57
2023-03-17T13:02:23.200Z,14.58
2023-03-17T13:05:00.797Z,14.60
2023-03-17T13:07:41.516Z,14.58
2023-03-17T13:10:40.066Z,14.60
2023-03-17T13:13:31.640Z,14.62
2023-03-17T13:16:00.441Z,14.67
2023-03-17T13:18:47.824Z,14.74
2023-03-17T13:21:17.462Z,14.71
2023-03-17T13:23:59.594Z,14.73
2023-03-17T13:26:55.015Z,14.65
2023-03-17T13:29:38.329Z,14.67
2023-03-17T13:32:19.918Z,14.63
2023-03-17T13:34:55.737Z,14.51
2023-03-17T13:37:30.811Z,14.47
2023-03-17T13:40:18.990Z,14.55
2023-03-17T13:42:59.601Z,14.60
2023-03-17T13:45:37.242Z,14.65
2023-03-17T13:48:28.461Z,14.51
2023-03-17T13:51:13.898Z,14.57
2023-03-17T13:53:45.779Z,14.57
2023-03-17T13:56:22.425Z,14.64
2023-03-17T13:59:12.537Z,14.61
2023-03-17T14:01:47.521Z,14.57
2023-03-17T14:04:28.371Z,14.59
2023-03-17T14:06:59.563Z,14.58
2023-03-17T14:09:33.537Z,14.40
2023-03-17T14:12:05.142Z,14.43
2023-03-17T14:14:42.510Z,14.44
2023-03-17T14:17:22.437Z,14.46
2023-03-17T14:20:13.048Z,14.52
2023-03-17T14:22:44.988Z,14.21
2023-03-17T14:25:18.755Z,14.37
2023-03-17T14:27:48.124Z,14.41
2023-03-17T14:30:21.882Z,14.45
2023-03-17T14:32:52.064Z,14.48
2023-03-17T14:35:19.824Z,14.52
2023-03-17T14:37:46.344Z,14.51
2023-03-17T14:40:26.554Z,14.56
2023-03-17T14:42:53.052Z,14.58
2023-03-17T14:45:41.494Z,14.61
2023-03-17T14:48:14.622Z,14.60
2023-03-17T14:50:52.057Z,14.59
2023-03-17T14:53:19.446Z,14.51
2023-03-17T14:55:46.546Z,14.61
2023-03-17T14:58:27.268Z,14.61
2023-03-17T15:01:07.055Z,14.54
2023-03-17T15:03:38.387Z,14.57
2023-03-17T15:06:13.233Z,14.55
2023-03-17T15:08:43.245Z,14.52
2023-03-17T15:11:18.280Z,14.56
2023-03-17T15:13:45.058Z,14.48
2023-03-17T15:16:30.807Z,14.52
2023-03-17T15:19:15.708Z,14.52
2023-03-17T15:21:42.857Z,14.53
2023-03-17T15:24:33.957Z,14.52
2023-03-17T15:27:03.322Z,14.44
2023-03-17T15:29:30.018Z,14.44
2023-03-17T15:32:02.870Z,14.42
2023-03-17T15:34:29.368Z,14.43
2023-03-17T15:36:57.070Z,14.44
2023-03-17T15:39:24.452Z,14.41
2023-03-17T15:41:50.867Z,14.36
2023-03-17T15:44:17.273Z,14.35
2023-03-17T15:46:43.926Z,14.33
2023-03-17T15:49:12.167Z,14.31
2023-03-17T15:51:38.891Z,14.29
2023-03-17T15:54:05.365Z,14.27
2023-03-17T15:56:31.823Z,14.25
2023-03-17T15:58:58.221Z,14.20
2023-03-17T16:01:27.672Z,14.17
2023-03-17T16:03:54.489Z,13.81
2023-03-17T16:06:22.387Z,13.99
2023-03-17T16:08:50.031Z,13.93
2023-03-17T16:11:19.403Z,13.94
2023-03-17T16:13:46.956Z,13.89
2023-03-17T16:16:21.457Z,13.95
2023-03-17T16:18:51.537Z,13.85
2023-03-17T16:21:19.132Z,13.90
2023-03-17T16:23:47.097Z,13.81
2023-03-17T16:26:16.557Z,13.81
2023-03-17T16:28:45.647Z,13.74
2023-03-17T16:31:19.237Z,13.74
2023-03-17T16:33:46.263Z,13.71
2023-03-17T16:36:16.021Z,13.69
2023-03-17T16:38:42.914Z,13.60
2023-03-17T16:41:17.186Z,13.61
2023-03-17T16:43:45.455Z,13.55
2023-03-17T16:46:12.539Z,13.49
2023-03-17T16:48:39.104Z,13.46
2023-03-17T16:51:06.125Z,13.36
2023-03-17T16:53:32.657Z,13.30
2023-03-17T16:55:59.208Z,13.28
2023-03-17T16:58:36.721Z,13.23
2023-03-17T17:01:09.648Z,13.18
2023-03-17T17:03:37.837Z,13.17
2023-03-17T17:06:05.759Z,13.14
2023-03-17T17:08:32.532Z,12.99
2023-03-17T17:10:59.030Z,13.00
2023-03-17T17:13:25.593Z,12.94
2023-03-17T17:15:52.207Z,12.94
2023-03-17T17:18:24.660Z,12.79
2023-03-17T17:20:52.539Z,12.72
2023-03-17T17:23:24.197Z,12.75
2023-03-17T17:25:51.590Z,12.66
2023-03-17T17:28:19.790Z,12.56
2023-03-17T17:30:48.006Z,12.60
2023-03-17T17:33:16.136Z,12.58
2023-03-17T17:35:44.449Z,12.56
2023-03-17T17:38:17.476Z,12.56
2023-03-17T17:40:43.899Z,12.50
2023-03-17T17:43:10.519Z,12.50
2023-03-17T17:45:37.201Z,12.50
2023-03-17T17:48:03.929Z,12.41
2023-03-17T17:50:31.335Z,12.38
2023-03-17T17:53:04.966Z,12.41
2023-03-17T17:55:33.721Z,12.36
2023-03-17T17:58:01.049Z,12.17
2023-03-17T18:00:27.883Z,12.28
2023-03-17T18:02:54.323Z,12.17
2023-03-17T18:05:20.806Z,12.24
2023-03-17T18:07:47.304Z,12.20
2023-03-17T18:10:22.215Z,12.19
2023-03-17T18:12:48.956Z,12.06
2023-03-17T18:15:15.957Z,12.08
2023-03-17T18:17:43.251Z,12.05
2023-03-17T18:20:15.394Z,12.05
2023-03-17T18:22:41.886Z,11.98
2023-03-17T18:25:09.931Z,11.96
2023-03-17T18:27:38.154Z,11.87
2023-03-17T18:30:08.508Z,11.95
2023-03-17T18:32:35.568Z,11.86
2023-03-17T18:35:08.021Z,11.85
2023-03-17T18:37:35.582Z,11.84
2023-03-17T18:40:19.111Z,11.81
2023-03-17T18:42:46.539Z,11.76
2023-03-17T18:45:13.502Z,11.70
2023-03-17T18:47:41.678Z,11.71
2023-03-17T18:50:10.752Z,11.66
2023-03-17T18:52:39.178Z,11.63
2023-03-17T18:55:06.566Z,11.54
2023-03-17T18:57:33.655Z,11.58
2023-03-17T19:00:00.185Z,11.47
2023-03-17T19:02:26.638Z,11.43
2023-03-17T19:04:53.192Z,11.46
2023-03-17T19:07:19.714Z,11.36
2023-03-17T19:09:46.160Z,11.24
2023-03-17T19:12:13.469Z,11.18
2023-03-17T19:14:40.315Z,11.23
2023-03-17T19:17:08.651Z,11.15
2023-03-17T19:19:35.789Z,11.12
2023-03-17T19:22:03.918Z,11.10
2023-03-17T19:24:31.535Z,11.21
2023-03-17T19:26:58.015Z,11.20
2023-03-17T19:29:24.750Z,11.26
2023-03-17T19:31:51.150Z,11.21
2023-03-17T19:34:17.797Z,11.22
2023-03-17T19:36:46.451Z,11.20
2023-03-17T19:39:14.469Z,11.12
2023-03-17T19:41:41.018Z,11.18
2023-03-17T19:44:07.732Z,11.13
2023-03-17T19:46:37.904Z,11.16
2023-03-17T19:49:05.344Z,11.06
2023-03-17T19:51:32.790Z,11.14
2023-03-17T19:53:59.506Z,11.18
2023-03-17T19:56:27.784Z,11.21
2023-03-17T19:58:54.902Z,11.21
2023-03-17T20:01:22.782Z,11.11
2023-03-17T20:03:49.950Z,11.15
2023-03-17T20:06:16.779Z,11.19
2023-03-17T20:08:43.736Z,11.09
2023-03-17T20:11:12.324Z,11.20
2023-03-17T20:13:39.904Z,11.18
2023-03-17T20:16:07.182Z,11.21
2023-03-17T20:18:34.283Z,11.20
2023-03-17T20:21:05.128Z,11.19
2023-03-17T20:23:32.054Z,11.23
2023-03-17T20:25:58.690Z,11.28
2023-03-17T20:28:25.175Z,11.26
2023-03-17T20:30:51.831Z,11.23
2023-03-17T20:33:18.501Z,11.24
2023-03-17T20:35:48.698Z,11.25
2023-03-17T20:38:15.817Z,11.24
2023-03-17T20:40:42.585Z,11.30
2023-03-17T20:43:09.463Z,11.28
2023-03-17T20:45:36.984Z,11.29
2023-03-17T20:48:06.006Z,11.26
2023-03-17T20:50:34.289Z,11.24
2023-03-17T20:53:01.530Z,11.23
2023-03-17T20:55:28.285Z,11.21
2023-03-17T20:57:54.820Z,11.25
2023-03-17T21:00:21.974Z,11.33
2023-03-17T21:02:50.328Z,11.06
2023-03-17T21:05:23.113Z,11.29
2023-03-17T21:07:50.611Z,11.21
2023-03-17T21:10:17.471Z,11.21
2023-03-17T21:12:44.149Z,11.24
2023-03-17T21:15:11.172Z,11.19
2023-03-17T21:17:41.917Z,11.23
2023-03-17T21:20:11.500Z,11.21
2023-03-17T21:22:39.866Z,11.24
2023-03-17T21:25:08.716Z,11.22
2023-03-17T21:27:39.534Z,11.27
2023-03-17T21:30:09.709Z,11.27
2023-03-17T21:32:36.267Z,11.25
2023-03-17T21:35:03.300Z,11.23
2023-03-17T21:37:29.759Z,11.25
2023-03-17T21:39:56.686Z,11.23
2023-03-17T21:42:24.611Z,11.22
2023-03-17T21:44:55.190Z,11.22
2023-03-17T21:47:21.687Z,11.21
2023-03-17T21:49:48.111Z,11.14
2023-03-17T21:52:15.122Z,11.16
2023-03-17T21:54:42.204Z,11.11
2023-03-17T21:57:08.749Z,11.19
2023-03-17T21:59:35.722Z,11.10
2023-03-17T22:02:02.874Z,11.19
2023-03-17T22:04:29.863Z,11.20
2023-03-17T22:06:57.074Z,11.11
2023-03-17T22:09:23.536Z,11.08
2023-03-17T22:11:50.062Z,11.08
2023-03-17T22:14:19.974Z,11.13
2023-03-17T22:16:48.021Z,11.12
2023-03-17T22:19:14.873Z,11.11
2023-03-17T22:21:42.094Z,11.13
2023-03-17T22:24:09.124Z,11.13
2023-03-17T22:26:35.888Z,11.14
2023-03-17T22:29:02.530Z,11.14
2023-03-17T22:31:30.041Z,11.07
2023-03-17T22:33:59.073Z,11.11
2023-03-17T22:36:26.370Z,11.09
2023-03-17T22:38:53.310Z,11.11
2023-03-17T22:41:22.512Z,11.10
2023-03-17T22:43:49.035Z,11.13
2023-03-17T22:46:16.334Z,11.07
2023-03-17T22:48:43.462Z,11.03
2023-03-17T22:51:14.534Z,10.95
2023-03-17T22:53:41.271Z,11.03
2023-03-17T22:56:08.828Z,11.04
2023-03-17T22:58:35.697Z,11.06
2023-03-17T23:01:03.725Z,11.03
2023-03-17T23:03:31.669Z,11.08
2023-03-17T23:05:59.720Z,11.04
2023-03-17T23:08:29.241Z,11.02
2023-03-17T23:10:58.020Z,11.00
2023-03-17T23:13:24.618Z,10.94
2023-03-17T23:15:51.609Z,10.95
2023-03-17T23:18:18.094Z,10.94
2023-03-17T23:20:45.704Z,10.92
2023-03-17T23:23:12.696Z,10.98
2023-03-17T23:25:39.687Z,11.00
2023-03-17T23:28:07.528Z,11.02
2023-03-17T23:30:35.707Z,10.99
2023-03-17T23:33:04.586Z,10.98
2023-03-17T23:35:31.566Z,10.91
2023-03-17T23:37:58.091Z,10.93
2023-03-17T23:40:24.518Z,10.92
2023-03-17T23:42:54.233Z,10.94
2023-03-17T23:45:23.129Z,10.90
2023-03-17T23:47:52.030Z,10.83
2023-03-17T23:50:19.863Z,10.93
2023-03-17T23:52:47.160Z,10.89
2023-03-17T23:55:14.850Z,10.87
2023-03-17T23:57:41.913Z,10.78
